createdAt,value
2023-03-05T00:00:07.504Z,4.30
2023-03-05T00:05:30.958Z,4.10
2023-03-05T00:10:34.468Z,4.10
2023-03-05T00:15:42.500Z,3.00
2023-03-05T00:20:46.515Z,3.70
2023-03-05T00:25:50.030Z,2.60
2023-03-05T00:30:53.687Z,2.90
2023-03-05T00:35:57.658Z,6.70
2023-03-05T00:41:01.499Z,7.30
2023-03-05T00:46:05.521Z,3.00
2023-03-05T00:51:09.666Z,3.60
2023-03-05T00:56:13.381Z,3.20
2023-03-05T01:01:16.833Z,3.00
2023-03-05T01:06:20.914Z,2.00
2023-03-05T01:11:25.032Z,2.40
2023-03-05T01:16:28.657Z,3.90
2023-03-05T01:21:32.168Z,5.60
2023-03-05T01:26:36.248Z,5.40
2023-03-05T01:31:39.738Z,5.20
2023-03-05T01:36:43.416Z,5.40
2023-03-05T01:41:47.551Z,4.40
2023-03-05T01:46:51.276Z,4.40
2023-03-05T01:52:18.217Z,4.70
2023-03-05T01:57:23.591Z,3.80
2023-03-05T02:02:27.216Z,4.10
2023-03-05T02:07:32.266Z,4.40
2023-03-05T02:12:35.672Z,3.70
2023-03-05T02:17:39.303Z,4.90
2023-03-05T02:22:42.921Z,3.50
2023-03-05T02:28:04.040Z,3.90
2023-03-05T02:33:07.758Z,3.00
2023-03-05T02:38:12.403Z,4.80
2023-03-05T02:43:15.836Z,3.90
2023-03-05T02:48:19.436Z,4.00
2023-03-05T02:53:24.088Z,3.60
2023-03-05T02:58:27.898Z,4.10
2023-03-05T03:03:31.689Z,4.70
2023-03-05T03:08:35.339Z,3.80
2023-03-05T03:13:39.176Z,4.10
2023-03-05T03:18:44.238Z,4.10
2023-03-05T03:23:47.841Z,3.80
2023-03-05T03:28:51.557Z,3.60
2023-03-05T03:33:55.378Z,3.90
2023-03-05T03:38:58.689Z,4.20
2023-03-05T03:44:03.799Z,4.00
2023-03-05T03:49:10.943Z,4.10
2023-03-05T03:54:16.025Z,3.50
2023-03-05T03:59:19.876Z,3.40
2023-03-05T04:04:23.382Z,4.20
2023-03-05T04:09:27.052Z,3.50
2023-03-05T04:14:30.774Z,3.80
2023-03-05T04:19:34.190Z,4.40
2023-03-05T04:24:38.522Z,4.20
2023-03-05T04:34:45.343Z,3.40
2023-03-05T04:39:49.073Z,2.40
2023-03-05T04:44:52.882Z,4.50
2023-03-05T04:49:56.302Z,4.30
2023-03-05T04:55:00.032Z,3.30
2023-03-05T05:00:12.131Z,3.70
2023-03-05T05:05:24.767Z,4.10
2023-03-05T05:10:28.403Z,4.20
2023-03-05T05:15:32.616Z,3.50
2023-03-05T05:20:36.131Z,3.10
2023-03-05T05:25:39.850Z,2.60
2023-03-05T05:30:43.365Z,3.40
2023-03-05T05:35:47.249Z,3.20
2023-03-05T05:40:50.709Z,3.40
2023-03-05T05:45:54.396Z,2.90
2023-03-05T05:50:58.157Z,3.00
2023-03-05T05:56:04.020Z,3.00
2023-03-05T06:01:25.761Z,5.10
2023-03-05T06:06:29.786Z,3.30
2023-03-05T06:11:34.331Z,3.90
2023-03-05T06:16:38.167Z,4.30
2023-03-05T06:21:43.758Z,3.30
2023-03-05T06:26:48.867Z,3.60
2023-03-05T06:31:52.383Z,2.80
2023-03-05T06:36:56.010Z,3.20
2023-03-05T06:41:59.623Z,3.10
2023-03-05T06:47:07.190Z,3.10
2023-03-05T06:52:10.976Z,3.30
2023-03-05T06:57:14.621Z,3.50
2023-03-05T07:02:19.462Z,4.00
2023-03-05T07:07:22.941Z,2.60
2023-03-05T07:12:26.651Z,3.20
2023-03-05T07:17:30.283Z,4.40
2023-03-05T07:22:33.796Z,3.20
2023-03-05T07:27:39.048Z,2.70
2023-03-05T07:32:42.961Z,2.50
2023-03-05T07:37:46.584Z,1.80
2023-03-05T07:42:50.126Z,2.10
2023-03-05T07:47:53.617Z,2.10
2023-03-05T07:52:57.134Z,1.70
2023-03-05T07:58:00.756Z,1.10
2023-03-05T08:03:04.380Z,2.10
2023-03-05T08:08:08.909Z,1.30
2023-03-05T08:18:19.213Z,1.80
2023-03-05T08:23:22.814Z,2.30
2023-03-05T08:28:26.659Z,1.60
2023-03-05T08:33:31.622Z,1.20
2023-03-05T08:38:36.043Z,2.00
2023-03-05T08:43:39.977Z,2.80
2023-03-05T08:48:44.005Z,1.30
2023-03-05T08:53:48.243Z,1.30
2023-03-05T08:58:52.764Z,1.70
2023-03-05T09:03:56.487Z,2.30
2023-03-05T09:09:00.143Z,1.50
2023-03-05T09:14:05.052Z,2.50
2023-03-05T09:19:10.821Z,1.90
2023-03-05T09:24:14.446Z,2.50
2023-03-05T09:29:17.954Z,1.40
2023-03-05T09:34:22.290Z,2.00
2023-03-05T09:39:25.701Z,2.40
2023-03-05T09:44:41.962Z,1.70
2023-03-05T09:49:45.544Z,4.70
2023-03-05T09:54:54.622Z,2.30
2023-03-05T10:00:09.182Z,1.90
2023-03-05T10:10:41.991Z,1.70
2023-03-05T10:16:05.280Z,1.70
2023-03-05T10:21:18.717Z,0.90
2023-03-05T10:26:34.116Z,0.80
2023-03-05T10:31:46.670Z,1.40
2023-03-05T10:36:58.159Z,1.40
2023-03-05T10:42:20.496Z,1.10
2023-03-05T10:47:38.972Z,0.80
2023-03-05T10:52:48.867Z,1.40
2023-03-05T10:57:52.341Z,1.40
2023-03-05T11:03:04.867Z,0.80
2023-03-05T11:08:35.743Z,0.70
2023-03-05T11:14:00.812Z,0.80
2023-03-05T11:19:22.992Z,0.80
2023-03-05T11:24:26.507Z,2.10
2023-03-05T11:29:35.144Z,1.20
2023-03-05T11:35:01.626Z,1.10
2023-03-05T11:40:18.539Z,1.60
2023-03-05T11:45:24.121Z,1.90
2023-03-05T11:50:27.609Z,1.80
2023-03-05T11:55:41.695Z,2.00
2023-03-05T12:00:47.338Z,1.00
2023-03-05T12:05:58.607Z,1.30
2023-03-05T12:11:09.836Z,1.20
2023-03-05T12:16:25.901Z,1.80
2023-03-05T12:21:39.708Z,2.10
2023-03-05T12:27:14.997Z,0.80
2023-03-05T12:32:34.244Z,1.20
2023-03-05T12:37:44.047Z,1.50
2023-03-05T12:42:59.198Z,1.50
2023-03-05T12:48:02.612Z,1.00
2023-03-05T12:53:18.427Z,1.30
2023-03-05T12:58:54.087Z,3.10
2023-03-05T13:04:04.518Z,1.80
2023-03-05T13:09:30.034Z,1.70
2023-03-05T13:14:35.756Z,1.50
2023-03-05T13:19:42.237Z,1.90
2023-03-05T13:24:47.230Z,0.90
2023-03-05T13:29:52.990Z,0.70
2023-03-05T13:34:59.480Z,0.80
2023-03-05T13:40:19.052Z,0.70
2023-03-05T13:45:30.077Z,1.40
2023-03-05T13:50:38.972Z,0.80
2023-03-05T13:55:42.479Z,2.30
2023-03-05T14:00:46.182Z,1.20
2023-03-05T14:05:50.330Z,0.90
2023-03-05T14:10:57.341Z,1.00
2023-03-05T14:16:26.267Z,1.10
2023-03-05T14:21:48.336Z,1.20
2023-03-05T14:26:54.058Z,1.10
2023-03-05T14:32:03.278Z,4.30
2023-03-05T14:37:21.770Z,1.30
2023-03-05T14:42:39.452Z,3.90
2023-03-05T14:47:43.243Z,5.30
2023-03-05T14:52:49.034Z,1.30
2023-03-05T14:58:07.484Z,4.10
2023-03-05T15:03:12.738Z,1.30
2023-03-05T15:08:34.940Z,2.80
2023-03-05T15:13:38.400Z,0.90
2023-03-05T15:18:41.918Z,1.00
2023-03-05T15:23:45.633Z,1.70
2023-03-05T15:28:49.149Z,1.00
2023-03-05T15:38:56.405Z,1.60
2023-03-05T15:44:00.007Z,3.00
2023-03-05T15:49:03.517Z,3.20
2023-03-05T15:54:07.137Z,2.90
2023-03-05T15:59:13.658Z,3.00
2023-03-05T16:04:17.764Z,2.90
2023-03-05T16:14:28.029Z,3.70
2023-03-05T16:19:34.549Z,3.50
2023-03-05T16:24:38.064Z,5.90
2023-03-05T16:29:41.584Z,5.30
2023-03-05T16:34:45.201Z,4.70
2023-03-05T16:39:49.338Z,3.30
2023-03-05T16:44:52.964Z,3.00
2023-03-05T16:49:56.578Z,4.10
2023-03-05T16:55:00.952Z,5.00
2023-03-05T17:00:05.935Z,5.60
2023-03-05T17:05:09.615Z,10.10
2023-03-05T17:10:14.110Z,5.10
2023-03-05T17:15:17.844Z,3.90
2023-03-05T17:20:21.859Z,4.30
2023-03-05T17:25:25.377Z,4.00
2023-03-05T17:30:31.582Z,7.90
2023-03-05T17:35:35.708Z,6.40
2023-03-05T17:40:39.915Z,4.80
2023-03-05T17:45:43.510Z,4.80
2023-03-05T17:50:47.563Z,3.80
2023-03-05T17:55:51.280Z,4.50
2023-03-05T18:00:55.191Z,3.60
2023-03-05T18:05:58.754Z,5.00
2023-03-05T18:11:02.346Z,3.90
2023-03-05T18:16:06.364Z,5.00
2023-03-05T18:21:10.305Z,4.70
2023-03-05T18:26:14.437Z,4.80
2023-03-05T18:31:19.270Z,6.00
2023-03-05T18:36:23.462Z,5.80
2023-03-05T18:41:28.323Z,4.80
2023-03-05T18:46:32.475Z,4.80
2023-03-05T18:51:37.705Z,5.30
2023-03-05T18:56:41.359Z,4.60
2023-03-05T19:01:44.907Z,4.70
2023-03-05T19:06:48.948Z,3.70
2023-03-05T19:11:53.135Z,4.00
2023-03-05T19:16:57.094Z,4.00
2023-03-05T19:22:01.429Z,4.20
2023-03-05T19:32:17.861Z,3.80
2023-03-05T19:37:22.491Z,3.80
2023-03-05T19:42:29.374Z,4.00
2023-03-05T19:47:33.518Z,5.10
2023-03-05T19:52:37.853Z,4.50
2023-03-05T19:57:42.075Z,4.30
2023-03-05T20:02:46.661Z,4.20
2023-03-05T20:07:50.742Z,3.60
2023-03-05T20:12:55.293Z,5.60
2023-03-05T20:17:59.966Z,4.60
2023-03-05T20:23:04.130Z,3.20
2023-03-05T20:28:08.600Z,4.20
2023-03-05T20:33:13.036Z,4.50
2023-03-05T20:38:21.805Z,4.30
2023-03-05T20:43:30.393Z,4.60
2023-03-05T20:48:34.771Z,4.90
2023-03-05T20:58:42.411Z,4.20
2023-03-05T21:03:45.893Z,4.80
2023-03-05T21:08:49.413Z,5.90
2023-03-05T21:13:53.032Z,4.80
2023-03-05T21:18:57.569Z,3.40
2023-03-05T21:24:00.983Z,5.70
2023-03-05T21:29:05.620Z,7.40
2023-03-05T21:34:09.144Z,8.20
2023-03-05T21:39:12.656Z,10.20
2023-03-05T21:44:18.011Z,8.00
2023-03-05T21:49:21.530Z,7.50
2023-03-05T21:54:26.368Z,5.90
2023-03-05T21:59:30.906Z,6.90
2023-03-05T22:04:34.525Z,6.50
2023-03-05T22:09:38.248Z,7.30
2023-03-05T22:14:42.068Z,7.20
2023-03-05T22:19:45.581Z,6.20
2023-03-05T22:24:49.098Z,6.40
2023-03-05T22:29:52.720Z,5.60
2023-03-05T22:34:56.944Z,5.50
2023-03-05T22:40:01.175Z,5.80
2023-03-05T22:45:05.046Z,5.60
2023-03-05T22:50:09.433Z,7.60
2023-03-05T23:05:25.314Z,5.80
2023-03-05T23:10:29.652Z,6.90
2023-03-05T23:15:36.072Z,6.40
2023-03-05T23:20:39.662Z,7.90
2023-03-05T23:25:43.271Z,4.90
2023-03-05T23:30:47.040Z,6.20
2023-03-05T23:35:59.406Z,5.40
2023-03-05T23:41:07.335Z,5.60
2023-03-05T23:46:12.460Z,6.80
2023-03-05T23:51:16.100Z,5.80
2023-03-05T23:56:19.719Z,11.40
